sensor_id;sensor_type;location;lat;lon;timestamp;P1;durP1;ratioP1;P2;durP2;ratioP2
79126;SDS011;68528;48.814;8.904;2023-04-23T00:00:51;6.00;;;2.40;;
79126;SDS011;68528;48.814;8.904;2023-04-23T00:03:18;4.40;;;2.08;;
79126;SDS011;68528;48.814;8.904;2023-04-23T00:05:47;2.30;;;1.80;;
79126;SDS011;68528;48.814;8.904;2023-04-23T00:08:16;4.40;;;1.95;;
79126;SDS011;68528;48.814;8.904;2023-04-23T00:10:43;4.80;;;1.90;;
79126;SDS011;68528;48.814;8.904;2023-04-23T00:13:09;2.38;;;1.50;;
79126;SDS011;68528;48.814;8.904;2023-04-23T00:15:36;3.80;;;2.22;;
79126;SDS011;68528;48.814;8.904;2023-04-23T00:20:30;1.80;;;1.55;;
79126;SDS011;68528;48.814;8.904;2023-04-23T00:22:58;1.83;;;1.48;;
79126;SDS011;68528;48.814;8.904;2023-04-23T00:25:24;3.10;;;1.80;;
79126;SDS011;68528;48.814;8.904;2023-04-23T00:27:51;2.85;;;1.77;;
79126;SDS011;68528;48.814;8.904;2023-04-23T00:30:16;5.13;;;2.20;;
79126;SDS011;68528;48.814;8.904;2023-04-23T00:32:42;4.65;;;2.15;;
79126;SDS011;68528;48.814;8.904;2023-04-23T00:35:08;2.45;;;1.58;;
79126;SDS011;68528;48.814;8.904;2023-04-23T00:37:35;3.00;;;1.60;;
79126;SDS011;68528;48.814;8.904;2023-04-23T00:40:00;1.90;;;1.52;;
79126;SDS011;68528;48.814;8.904;2023-04-23T00:42:26;6.05;;;2.00;;
79126;SDS011;68528;48.814;8.904;2023-04-23T00:44:54;3.88;;;2.63;;
79126;SDS011;68528;48.814;8.904;2023-04-23T00:47:21;4.93;;;1.92;;
79126;SDS011;68528;48.814;8.904;2023-04-23T00:49:46;2.60;;;1.48;;
79126;SDS011;68528;48.814;8.904;2023-04-23T00:52:14;5.15;;;1.80;;
79126;SDS011;68528;48.814;8.904;2023-04-23T00:54:40;4.50;;;1.77;;
79126;SDS011;68528;48.814;8.904;2023-04-23T00:57:05;5.20;;;1.75;;
79126;SDS011;68528;48.814;8.904;2023-04-23T00:59:32;4.13;;;1.88;;
79126;SDS011;68528;48.814;8.904;2023-04-23T01:01:58;3.03;;;1.45;;
79126;SDS011;68528;48.814;8.904;2023-04-23T01:04:24;3.63;;;1.95;;
79126;SDS011;68528;48.814;8.904;2023-04-23T01:06:53;3.40;;;1.70;;
79126;SDS011;68528;48.814;8.904;2023-04-23T01:09:20;4.63;;;1.90;;
79126;SDS011;68528;48.814;8.904;2023-04-23T01:11:46;2.35;;;1.80;;
79126;SDS011;68528;48.814;8.904;2023-04-23T01:14:15;3.53;;;2.00;;
79126;SDS011;68528;48.814;8.904;2023-04-23T01:16:40;2.88;;;1.67;;
79126;SDS011;68528;48.814;8.904;2023-04-23T01:19:06;3.80;;;1.90;;
79126;SDS011;68528;48.814;8.904;2023-04-23T01:21:34;2.97;;;2.03;;
79126;SDS011;68528;48.814;8.904;2023-04-23T01:24:04;3.28;;;1.90;;
79126;SDS011;68528;48.814;8.904;2023-04-23T01:26:30;2.95;;;1.83;;
79126;SDS011;68528;48.814;8.904;2023-04-23T01:28:58;5.65;;;2.22;;
79126;SDS011;68528;48.814;8.904;2023-04-23T01:31:26;4.13;;;2.50;;
79126;SDS011;68528;48.814;8.904;2023-04-23T01:34:14;3.65;;;1.83;;
79126;SDS011;68528;48.814;8.904;2023-04-23T01:36:39;4.80;;;1.85;;
79126;SDS011;68528;48.814;8.904;2023-04-23T01:39:06;3.78;;;3.38;;
79126;SDS011;68528;48.814;8.904;2023-04-23T01:41:33;5.78;;;2.20;;
79126;SDS011;68528;48.814;8.904;2023-04-23T01:43:59;4.15;;;2.50;;
79126;SDS011;68528;48.814;8.904;2023-04-23T01:46:26;2.47;;;2.00;;
79126;SDS011;68528;48.814;8.904;2023-04-23T01:48:52;4.50;;;2.13;;
79126;SDS011;68528;48.814;8.904;2023-04-23T01:51:17;2.65;;;1.58;;
79126;SDS011;68528;48.814;8.904;2023-04-23T01:53:43;2.72;;;1.50;;
79126;SDS011;68528;48.814;8.904;2023-04-23T01:56:08;3.83;;;1.30;;
79126;SDS011;68528;48.814;8.904;2023-04-23T01:58:35;1.88;;;1.52;;
79126;SDS011;68528;48.814;8.904;2023-04-23T02:01:00;3.70;;;1.77;;
79126;SDS011;68528;48.814;8.904;2023-04-23T02:03:27;2.53;;;1.33;;
79126;SDS011;68528;48.814;8.904;2023-04-23T02:05:54;3.30;;;1.20;;
79126;SDS011;68528;48.814;8.904;2023-04-23T02:08:20;1.58;;;1.20;;
79126;SDS011;68528;48.814;8.904;2023-04-23T02:10:46;1.67;;;1.33;;
79126;SDS011;68528;48.814;8.904;2023-04-23T02:13:11;2.70;;;1.60;;
79126;SDS011;68528;48.814;8.904;2023-04-23T02:15:37;3.53;;;1.63;;
79126;SDS011;68528;48.814;8.904;2023-04-23T02:18:02;3.50;;;1.63;;
79126;SDS011;68528;48.814;8.904;2023-04-23T02:20:29;3.08;;;1.77;;
79126;SDS011;68528;48.814;8.904;2023-04-23T02:22:55;2.53;;;1.65;;
79126;SDS011;68528;48.814;8.904;2023-04-23T02:25:21;1.85;;;1.55;;
79126;SDS011;68528;48.814;8.904;2023-04-23T02:27:47;2.97;;;1.75;;
79126;SDS011;68528;48.814;8.904;2023-04-23T02:30:13;3.15;;;1.30;;
79126;SDS011;68528;48.814;8.904;2023-04-23T02:32:41;3.35;;;1.52;;
79126;SDS011;68528;48.814;8.904;2023-04-23T02:35:07;2.20;;;1.23;;
79126;SDS011;68528;48.814;8.904;2023-04-23T02:37:33;2.38;;;1.20;;
79126;SDS011;68528;48.814;8.904;2023-04-23T02:39:59;2.90;;;1.23;;
79126;SDS011;68528;48.814;8.904;2023-04-23T02:42:25;2.33;;;1.50;;
79126;SDS011;68528;48.814;8.904;2023-04-23T02:44:52;2.50;;;1.20;;
79126;SDS011;68528;48.814;8.904;2023-04-23T02:47:17;2.75;;;1.20;;
79126;SDS011;68528;48.814;8.904;2023-04-23T02:49:43;1.90;;;1.40;;
79126;SDS011;68528;48.814;8.904;2023-04-23T02:52:09;1.40;;;1.00;;
79126;SDS011;68528;48.814;8.904;2023-04-23T02:54:34;2.75;;;1.10;;
79126;SDS011;68528;48.814;8.904;2023-04-23T02:57:01;1.52;;;1.05;;
79126;SDS011;68528;48.814;8.904;2023-04-23T02:59:27;2.40;;;0.90;;
79126;SDS011;68528;48.814;8.904;2023-04-23T03:01:55;1.30;;;1.00;;
79126;SDS011;68528;48.814;8.904;2023-04-23T03:04:20;1.10;;;1.00;;
79126;SDS011;68528;48.814;8.904;2023-04-23T03:06:46;1.00;;;0.80;;
79126;SDS011;68528;48.814;8.904;2023-04-23T03:09:12;1.13;;;1.02;;
79126;SDS011;68528;48.814;8.904;2023-04-23T03:11:37;3.05;;;1.27;;
79126;SDS011;68528;48.814;8.904;2023-04-23T03:14:03;4.03;;;1.02;;
79126;SDS011;68528;48.814;8.904;2023-04-23T03:16:29;2.00;;;1.10;;
79126;SDS011;68528;48.814;8.904;2023-04-23T03:18:56;3.75;;;1.27;;
79126;SDS011;68528;48.814;8.904;2023-04-23T03:21:22;1.85;;;1.13;;
79126;SDS011;68528;48.814;8.904;2023-04-23T03:23:48;1.13;;;0.93;;
79126;SDS011;68528;48.814;8.904;2023-04-23T03:26:13;1.92;;;0.80;;
79126;SDS011;68528;48.814;8.904;2023-04-23T03:28:39;1.35;;;0.60;;
79126;SDS011;68528;48.814;8.904;2023-04-23T03:31:04;1.20;;;0.70;;
79126;SDS011;68528;48.814;8.904;2023-04-23T03:33:30;1.13;;;0.70;;
79126;SDS011;68528;48.814;8.904;2023-04-23T03:35:55;1.50;;;0.70;;
79126;SDS011;68528;48.814;8.904;2023-04-23T03:38:22;4.30;;;0.63;;
79126;SDS011;68528;48.814;8.904;2023-04-23T03:40:49;2.03;;;0.70;;
79126;SDS011;68528;48.814;8.904;2023-04-23T03:43:15;0.57;;;0.43;;
79126;SDS011;68528;48.814;8.904;2023-04-23T03:45:40;1.02;;;0.57;;
79126;SDS011;68528;48.814;8.904;2023-04-23T03:48:06;0.82;;;0.70;;
79126;SDS011;68528;48.814;8.904;2023-04-23T03:50:32;2.90;;;1.10;;
79126;SDS011;68528;48.814;8.904;2023-04-23T03:53:02;0.90;;;0.60;;
79126;SDS011;68528;48.814;8.904;2023-04-23T03:55:28;2.53;;;0.80;;
79126;SDS011;68528;48.814;8.904;2023-04-23T03:57:54;0.93;;;0.75;;
79126;SDS011;68528;48.814;8.904;2023-04-23T04:00:19;2.15;;;0.70;;
79126;SDS011;68528;48.814;8.904;2023-04-23T04:02:45;1.25;;;0.60;;
79126;SDS011;68528;48.814;8.904;2023-04-23T04:05:11;1.20;;;0.65;;
79126;SDS011;68528;48.814;8.904;2023-04-23T04:07:45;0.95;;;0.75;;
79126;SDS011;68528;48.814;8.904;2023-04-23T04:10:16;4.20;;;0.80;;
79126;SDS011;68528;48.814;8.904;2023-04-23T04:12:43;1.00;;;0.50;;
79126;SDS011;68528;48.814;8.904;2023-04-23T04:15:11;1.05;;;0.70;;
79126;SDS011;68528;48.814;8.904;2023-04-23T04:17:37;1.23;;;0.50;;
79126;SDS011;68528;48.814;8.904;2023-04-23T04:20:04;2.35;;;0.68;;
79126;SDS011;68528;48.814;8.904;2023-04-23T04:22:36;0.75;;;0.50;;
79126;SDS011;68528;48.814;8.904;2023-04-23T04:25:02;0.98;;;0.70;;
79126;SDS011;68528;48.814;8.904;2023-04-23T04:27:29;0.90;;;0.60;;
79126;SDS011;68528;48.814;8.904;2023-04-23T04:29:58;0.82;;;0.57;;
79126;SDS011;68528;48.814;8.904;2023-04-23T04:33:09;1.13;;;0.75;;
79126;SDS011;68528;48.814;8.904;2023-04-23T04:35:35;1.30;;;0.70;;
79126;SDS011;68528;48.814;8.904;2023-04-23T04:38:02;1.17;;;0.77;;
79126;SDS011;68528;48.814;8.904;2023-04-23T04:40:30;0.77;;;0.50;;
79126;SDS011;68528;48.814;8.904;2023-04-23T04:43:00;2.15;;;0.50;;
79126;SDS011;68528;48.814;8.904;2023-04-23T04:45:26;3.17;;;0.63;;
79126;SDS011;68528;48.814;8.904;2023-04-23T04:47:51;1.60;;;0.70;;
79126;SDS011;68528;48.814;8.904;2023-04-23T04:50:16;0.68;;;0.65;;
79126;SDS011;68528;48.814;8.904;2023-04-23T04:52:45;0.88;;;0.55;;
79126;SDS011;68528;48.814;8.904;2023-04-23T04:55:11;1.20;;;0.88;;
79126;SDS011;68528;48.814;8.904;2023-04-23T04:57:40;2.10;;;1.10;;
79126;SDS011;68528;48.814;8.904;2023-04-23T05:00:19;1.02;;;0.77;;
79126;SDS011;68528;48.814;8.904;2023-04-23T05:02:52;1.00;;;0.70;;
79126;SDS011;68528;48.814;8.904;2023-04-23T05:05:18;1.52;;;0.80;;
79126;SDS011;68528;48.814;8.904;2023-04-23T05:07:44;1.48;;;0.68;;
79126;SDS011;68528;48.814;8.904;2023-04-23T05:10:12;0.80;;;0.80;;
79126;SDS011;68528;48.814;8.904;2023-04-23T05:12:38;1.48;;;0.80;;
79126;SDS011;68528;48.814;8.904;2023-04-23T05:22:15;3.65;;;1.00;;
79126;SDS011;68528;48.814;8.904;2023-04-23T05:24:42;1.55;;;0.77;;
79126;SDS011;68528;48.814;8.904;2023-04-23T05:27:16;1.20;;;0.80;;
79126;SDS011;68528;48.814;8.904;2023-04-23T14:29:57;1.90;;;0.57;;
79126;SDS011;68528;48.814;8.904;2023-04-23T14:32:53;0.77;;;0.50;;
79126;SDS011;68528;48.814;8.904;2023-04-23T14:35:20;1.20;;;0.40;;
79126;SDS011;68528;48.814;8.904;2023-04-23T14:37:48;0.95;;;0.47;;
79126;SDS011;68528;48.814;8.904;2023-04-23T14:40:13;0.60;;;0.47;;
79126;SDS011;68528;48.814;8.904;2023-04-23T14:42:48;1.60;;;0.57;;
79126;SDS011;68528;48.814;8.904;2023-04-23T14:45:14;1.92;;;1.02;;
79126;SDS011;68528;48.814;8.904;2023-04-23T14:47:42;0.70;;;0.50;;
79126;SDS011;68528;48.814;8.904;2023-04-23T14:50:13;1.23;;;0.40;;
79126;SDS011;68528;48.814;8.904;2023-04-23T14:52:40;1.02;;;0.50;;
79126;SDS011;68528;48.814;8.904;2023-04-23T14:55:09;2.70;;;0.52;;
79126;SDS011;68528;48.814;8.904;2023-04-23T14:57:35;0.88;;;0.52;;
79126;SDS011;68528;48.814;8.904;2023-04-23T15:00:07;5.05;;;0.52;;
79126;SDS011;68528;48.814;8.904;2023-04-23T15:02:54;0.40;;;0.40;;
79126;SDS011;68528;48.814;8.904;2023-04-23T15:05:20;1.20;;;0.57;;
79126;SDS011;68528;48.814;8.904;2023-04-23T15:07:47;1.13;;;0.70;;
79126;SDS011;68528;48.814;8.904;2023-04-23T15:10:12;1.05;;;0.50;;
79126;SDS011;68528;48.814;8.904;2023-04-23T15:15:19;0.75;;;0.40;;
79126;SDS011;68528;48.814;8.904;2023-04-23T15:17:50;2.22;;;0.40;;
79126;SDS011;68528;48.814;8.904;2023-04-23T15:20:15;0.85;;;0.80;;
79126;SDS011;68528;48.814;8.904;2023-04-23T15:22:47;3.22;;;0.70;;
79126;SDS011;68528;48.814;8.904;2023-04-23T15:25:13;2.05;;;0.63;;
79126;SDS011;68528;48.814;8.904;2023-04-23T15:27:38;2.67;;;0.50;;
79126;SDS011;68528;48.814;8.904;2023-04-23T15:30:04;5.60;;;0.70;;
79126;SDS011;68528;48.814;8.904;2023-04-23T15:32:30;1.23;;;0.50;;
79126;SDS011;68528;48.814;8.904;2023-04-23T15:34:56;1.25;;;0.40;;
79126;SDS011;68528;48.814;8.904;2023-04-23T15:37:21;3.63;;;0.60;;
79126;SDS011;68528;48.814;8.904;2023-04-23T15:39:49;2.42;;;0.80;;
79126;SDS011;68528;48.814;8.904;2023-04-23T15:42:17;1.20;;;0.43;;
79126;SDS011;68528;48.814;8.904;2023-04-23T15:45:03;0.80;;;0.60;;
79126;SDS011;68528;48.814;8.904;2023-04-23T15:47:31;1.92;;;0.60;;
79126;SDS011;68528;48.814;8.904;2023-04-23T15:49:57;1.58;;;0.70;;
79126;SDS011;68528;48.814;8.904;2023-04-23T15:52:22;2.28;;;0.70;;
79126;SDS011;68528;48.814;8.904;2023-04-23T15:54:50;2.83;;;0.60;;
79126;SDS011;68528;48.814;8.904;2023-04-23T15:57:17;1.42;;;0.80;;
79126;SDS011;68528;48.814;8.904;2023-04-23T16:00:03;2.35;;;0.60;;
79126;SDS011;68528;48.814;8.904;2023-04-23T16:02:48;1.17;;;0.30;;
79126;SDS011;68528;48.814;8.904;2023-04-23T16:05:15;0.70;;;0.40;;
79126;SDS011;68528;48.814;8.904;2023-04-23T16:07:43;0.93;;;0.60;;
79126;SDS011;68528;48.814;8.904;2023-04-23T16:10:11;1.83;;;0.40;;
79126;SDS011;68528;48.814;8.904;2023-04-23T16:12:37;1.00;;;0.50;;
79126;SDS011;68528;48.814;8.904;2023-04-23T16:15:03;2.30;;;0.65;;
79126;SDS011;68528;48.814;8.904;2023-04-23T16:17:51;1.33;;;0.73;;
79126;SDS011;68528;48.814;8.904;2023-04-23T16:20:17;2.05;;;1.15;;
79126;SDS011;68528;48.814;8.904;2023-04-23T16:22:43;1.00;;;0.70;;
79126;SDS011;68528;48.814;8.904;2023-04-23T16:25:09;1.70;;;0.98;;
79126;SDS011;68528;48.814;8.904;2023-04-23T16:27:35;0.70;;;0.60;;
79126;SDS011;68528;48.814;8.904;2023-04-23T16:30:02;3.33;;;0.93;;
79126;SDS011;68528;48.814;8.904;2023-04-23T16:32:27;1.17;;;0.68;;
79126;SDS011;68528;48.814;8.904;2023-04-23T16:34:53;1.13;;;0.73;;
79126;SDS011;68528;48.814;8.904;2023-04-23T16:37:19;1.05;;;0.55;;
79126;SDS011;68528;48.814;8.904;2023-04-23T16:39:46;1.30;;;0.75;;
79126;SDS011;68528;48.814;8.904;2023-04-23T16:42:11;2.13;;;0.85;;
79126;SDS011;68528;48.814;8.904;2023-04-23T16:44:37;1.50;;;0.60;;
79126;SDS011;68528;48.814;8.904;2023-04-23T16:47:02;2.65;;;0.68;;
79126;SDS011;68528;48.814;8.904;2023-04-23T16:49:33;2.63;;;0.70;;
79126;SDS011;68528;48.814;8.904;2023-04-23T16:52:23;1.15;;;0.65;;
79126;SDS011;68528;48.814;8.904;2023-04-23T16:55:12;1.63;;;0.80;;
79126;SDS011;68528;48.814;8.904;2023-04-23T16:57:58;2.05;;;0.93;;
79126;SDS011;68528;48.814;8.904;2023-04-23T17:00:24;3.55;;;1.00;;
79126;SDS011;68528;48.814;8.904;2023-04-23T17:02:52;1.80;;;0.82;;
79126;SDS011;68528;48.814;8.904;2023-04-23T17:05:17;2.13;;;0.93;;
79126;SDS011;68528;48.814;8.904;2023-04-23T17:07:52;1.23;;;0.90;;
79126;SDS011;68528;48.814;8.904;2023-04-23T17:10:30;1.35;;;0.70;;
79126;SDS011;68528;48.814;8.904;2023-04-23T17:13:04;1.85;;;0.93;;
79126;SDS011;68528;48.814;8.904;2023-04-23T17:15:35;1.15;;;0.75;;
79126;SDS011;68528;48.814;8.904;2023-04-23T17:18:00;1.15;;;0.70;;
79126;SDS011;68528;48.814;8.904;2023-04-23T17:20:26;2.15;;;0.70;;
79126;SDS011;68528;48.814;8.904;2023-04-23T17:22:52;2.17;;;0.70;;
79126;SDS011;68528;48.814;8.904;2023-04-23T17:25:18;1.40;;;0.60;;
79126;SDS011;68528;48.814;8.904;2023-04-23T17:27:53;2.20;;;0.70;;
79126;SDS011;68528;48.814;8.904;2023-04-23T17:30:19;0.98;;;0.57;;
79126;SDS011;68528;48.814;8.904;2023-04-23T17:32:48;1.10;;;0.70;;
79126;SDS011;68528;48.814;8.904;2023-04-23T17:35:22;0.93;;;0.55;;
79126;SDS011;68528;48.814;8.904;2023-04-23T17:37:48;0.73;;;0.60;;
79126;SDS011;68528;48.814;8.904;2023-04-23T17:40:14;2.80;;;0.60;;
79126;SDS011;68528;48.814;8.904;2023-04-23T17:42:41;1.38;;;0.80;;
79126;SDS011;68528;48.814;8.904;2023-04-23T17:45:07;1.75;;;1.08;;
79126;SDS011;68528;48.814;8.904;2023-04-23T17:47:36;2.95;;;0.95;;
79126;SDS011;68528;48.814;8.904;2023-04-23T17:50:04;1.20;;;0.90;;
79126;SDS011;68528;48.814;8.904;2023-04-23T17:52:34;1.95;;;0.63;;
79126;SDS011;68528;48.814;8.904;2023-04-23T17:55:00;1.33;;;0.68;;
79126;SDS011;68528;48.814;8.904;2023-04-23T17:57:26;0.73;;;0.70;;
79126;SDS011;68528;48.814;8.904;2023-04-23T17:59:52;1.42;;;0.52;;
79126;SDS011;68528;48.814;8.904;2023-04-23T18:02:18;1.25;;;0.70;;
79126;SDS011;68528;48.814;8.904;2023-04-23T18:04:44;1.10;;;0.68;;
79126;SDS011;68528;48.814;8.904;2023-04-23T18:07:33;1.65;;;0.65;;
79126;SDS011;68528;48.814;8.904;2023-04-23T18:10:10;1.08;;;0.60;;
79126;SDS011;68528;48.814;8.904;2023-04-23T18:12:36;1.02;;;0.70;;
79126;SDS011;68528;48.814;8.904;2023-04-23T18:15:02;1.50;;;0.70;;
79126;SDS011;68528;48.814;8.904;2023-04-23T18:17:28;1.33;;;1.05;;
79126;SDS011;68528;48.814;8.904;2023-04-23T18:19:54;1.88;;;0.68;;
79126;SDS011;68528;48.814;8.904;2023-04-23T18:22:23;1.48;;;0.85;;
79126;SDS011;68528;48.814;8.904;2023-04-23T18:24:50;2.45;;;0.70;;
79126;SDS011;68528;48.814;8.904;2023-04-23T18:27:17;1.25;;;0.80;;
79126;SDS011;68528;48.814;8.904;2023-04-23T18:29:43;0.98;;;0.70;;
79126;SDS011;68528;48.814;8.904;2023-04-23T18:32:10;0.60;;;0.60;;
79126;SDS011;68528;48.814;8.904;2023-04-23T18:34:38;1.00;;;0.70;;
79126;SDS011;68528;48.814;8.904;2023-04-23T18:37:08;0.60;;;0.40;;
79126;SDS011;68528;48.814;8.904;2023-04-23T18:39:36;0.88;;;0.65;;
79126;SDS011;68528;48.814;8.904;2023-04-23T18:42:05;1.25;;;0.70;;
79126;SDS011;68528;48.814;8.904;2023-04-23T18:44:31;1.95;;;0.60;;
79126;SDS011;68528;48.814;8.904;2023-04-23T18:46:59;1.33;;;0.80;;
79126;SDS011;68528;48.814;8.904;2023-04-23T18:49:36;0.85;;;0.50;;
79126;SDS011;68528;48.814;8.904;2023-04-23T18:52:06;0.90;;;0.70;;
79126;SDS011;68528;48.814;8.904;2023-04-23T18:54:31;0.80;;;0.70;;
79126;SDS011;68528;48.814;8.904;2023-04-23T18:56:58;2.30;;;0.52;;
79126;SDS011;68528;48.814;8.904;2023-04-23T18:59:26;1.38;;;0.95;;
79126;SDS011;68528;48.814;8.904;2023-04-23T19:01:56;1.25;;;0.70;;
79126;SDS011;68528;48.814;8.904;2023-04-23T19:04:23;1.95;;;0.43;;
79126;SDS011;68528;48.814;8.904;2023-04-23T19:06:53;1.08;;;0.65;;
79126;SDS011;68528;48.814;8.904;2023-04-23T19:09:20;0.45;;;0.38;;
79126;SDS011;68528;48.814;8.904;2023-04-23T19:11:46;1.45;;;0.80;;
79126;SDS011;68528;48.814;8.904;2023-04-23T19:14:12;0.90;;;0.52;;
79126;SDS011;68528;48.814;8.904;2023-04-23T19:16:39;0.77;;;0.60;;
79126;SDS011;68528;48.814;8.904;2023-04-23T19:19:29;1.55;;;0.50;;
79126;SDS011;68528;48.814;8.904;2023-04-23T19:22:19;1.23;;;0.70;;
79126;SDS011;68528;48.814;8.904;2023-04-23T19:24:46;1.65;;;0.70;;
79126;SDS011;68528;48.814;8.904;2023-04-23T19:27:15;0.73;;;0.50;;
79126;SDS011;68528;48.814;8.904;2023-04-23T19:29:43;4.00;;;0.70;;
79126;SDS011;68528;48.814;8.904;2023-04-23T19:32:09;0.88;;;0.55;;
79126;SDS011;68528;48.814;8.904;2023-04-23T19:34:36;1.45;;;0.30;;
79126;SDS011;68528;48.814;8.904;2023-04-23T19:37:04;0.43;;;0.38;;
79126;SDS011;68528;48.814;8.904;2023-04-23T19:39:39;0.80;;;0.50;;
79126;SDS011;68528;48.814;8.904;2023-04-23T19:42:52;0.60;;;0.45;;
79126;SDS011;68528;48.814;8.904;2023-04-23T19:45:17;3.45;;;1.80;;
79126;SDS011;68528;48.814;8.904;2023-04-23T19:47:45;3.25;;;1.58;;
79126;SDS011;68528;48.814;8.904;2023-04-23T19:50:12;0.70;;;0.55;;
79126;SDS011;68528;48.814;8.904;2023-04-23T19:52:39;1.05;;;0.70;;
79126;SDS011;68528;48.814;8.904;2023-04-23T19:55:05;0.95;;;0.50;;
79126;SDS011;68528;48.814;8.904;2023-04-23T19:57:33;1.30;;;0.40;;
79126;SDS011;68528;48.814;8.904;2023-04-23T19:59:59;0.50;;;0.45;;
79126;SDS011;68528;48.814;8.904;2023-04-23T20:02:30;0.80;;;0.25;;
79126;SDS011;68528;48.814;8.904;2023-04-23T20:04:58;0.98;;;0.43;;
79126;SDS011;68528;48.814;8.904;2023-04-23T20:07:24;1.77;;;0.57;;
79126;SDS011;68528;48.814;8.904;2023-04-23T20:09:50;1.30;;;0.57;;
79126;SDS011;68528;48.814;8.904;2023-04-23T20:12:25;1.05;;;0.60;;
79126;SDS011;68528;48.814;8.904;2023-04-23T20:15:00;0.25;;;0.25;;
79126;SDS011;68528;48.814;8.904;2023-04-23T20:17:49;0.65;;;0.30;;
79126;SDS011;68528;48.814;8.904;2023-04-23T20:20:16;1.65;;;0.40;;
79126;SDS011;68528;48.814;8.904;2023-04-23T20:22:42;0.60;;;0.40;;
79126;SDS011;68528;48.814;8.904;2023-04-23T20:25:09;1.52;;;0.50;;
79126;SDS011;68528;48.814;8.904;2023-04-23T20:27:35;0.40;;;0.40;;
79126;SDS011;68528;48.814;8.904;2023-04-23T20:30:02;0.40;;;0.28;;
79126;SDS011;68528;48.814;8.904;2023-04-23T20:32:35;1.42;;;0.22;;
79126;SDS011;68528;48.814;8.904;2023-04-23T20:35:27;0.50;;;0.30;;
79126;SDS011;68528;48.814;8.904;2023-04-23T20:37:57;0.82;;;0.30;;
79126;SDS011;68528;48.814;8.904;2023-04-23T20:40:25;0.63;;;0.30;;
79126;SDS011;68528;48.814;8.904;2023-04-23T20:42:52;0.95;;;0.30;;
79126;SDS011;68528;48.814;8.904;2023-04-23T20:45:19;1.70;;;0.77;;
79126;SDS011;68528;48.814;8.904;2023-04-23T20:47:47;0.32;;;0.32;;
79126;SDS011;68528;48.814;8.904;2023-04-23T20:50:14;0.93;;;0.35;;
79126;SDS011;68528;48.814;8.904;2023-04-23T20:53:00;0.88;;;0.30;;
79126;SDS011;68528;48.814;8.904;2023-04-23T20:55:48;0.85;;;0.45;;
79126;SDS011;68528;48.814;8.904;2023-04-23T20:58:56;1.80;;;0.40;;
79126;SDS011;68528;48.814;8.904;2023-04-23T21:01:24;0.40;;;0.20;;
79126;SDS011;68528;48.814;8.904;2023-04-23T21:03:50;2.72;;;0.30;;
79126;SDS011;68528;48.814;8.904;2023-04-23T21:06:18;0.30;;;0.20;;
79126;SDS011;68528;48.814;8.904;2023-04-23T21:08:44;0.57;;;0.20;;
79126;SDS011;68528;48.814;8.904;2023-04-23T21:11:15;1.33;;;0.57;;
79126;SDS011;68528;48.814;8.904;2023-04-23T21:13:45;1.23;;;0.45;;
79126;SDS011;68528;48.814;8.904;2023-04-23T21:16:12;0.75;;;0.30;;
79126;SDS011;68528;48.814;8.904;2023-04-23T21:18:38;0.65;;;0.32;;
79126;SDS011;68528;48.814;8.904;2023-04-23T21:21:04;0.88;;;0.28;;
79126;SDS011;68528;48.814;8.904;2023-04-23T21:23:30;0.43;;;0.40;;
79126;SDS011;68528;48.814;8.904;2023-04-23T21:25:55;3.50;;;0.50;;
79126;SDS011;68528;48.814;8.904;2023-04-23T21:28:22;1.65;;;0.40;;
79126;SDS011;68528;48.814;8.904;2023-04-23T21:30:48;0.43;;;0.30;;
79126;SDS011;68528;48.814;8.904;2023-04-23T21:33:20;0.38;;;0.25;;
79126;SDS011;68528;48.814;8.904;2023-04-23T21:35:49;0.95;;;0.30;;
79126;SDS011;68528;48.814;8.904;2023-04-23T21:38:16;0.30;;;0.30;;
79126;SDS011;68528;48.814;8.904;2023-04-23T21:40:44;1.17;;;0.40;;
79126;SDS011;68528;48.814;8.904;2023-04-23T21:43:10;0.93;;;0.50;;
79126;SDS011;68528;48.814;8.904;2023-04-23T21:45:37;0.82;;;0.30;;
79126;SDS011;68528;48.814;8.904;2023-04-23T21:48:08;1.85;;;0.20;;
79126;SDS011;68528;48.814;8.904;2023-04-23T21:50:38;0.40;;;0.30;;
79126;SDS011;68528;48.814;8.904;2023-04-23T21:53:05;0.85;;;0.40;;
79126;SDS011;68528;48.814;8.904;2023-04-23T21:55:30;0.70;;;0.30;;
79126;SDS011;68528;48.814;8.904;2023-04-23T21:57:56;2.40;;;0.68;;
79126;SDS011;68528;48.814;8.904;2023-04-23T22:00:24;2.22;;;0.57;;
79126;SDS011;68528;48.814;8.904;2023-04-23T22:02:50;0.93;;;0.47;;
79126;SDS011;68528;48.814;8.904;2023-04-23T22:05:37;1.75;;;0.45;;
79126;SDS011;68528;48.814;8.904;2023-04-23T22:08:08;1.00;;;0.40;;
79126;SDS011;68528;48.814;8.904;2023-04-23T22:10:34;1.80;;;0.65;;
79126;SDS011;68528;48.814;8.904;2023-04-23T22:13:02;0.43;;;0.38;;
79126;SDS011;68528;48.814;8.904;2023-04-23T22:15:27;1.02;;;0.38;;
79126;SDS011;68528;48.814;8.904;2023-04-23T22:17:53;0.88;;;0.50;;
79126;SDS011;68528;48.814;8.904;2023-04-23T22:20:18;0.90;;;0.70;;
79126;SDS011;68528;48.814;8.904;2023-04-23T22:22:57;2.47;;;0.47;;
79126;SDS011;68528;48.814;8.904;2023-04-23T22:25:28;1.50;;;0.80;;
79126;SDS011;68528;48.814;8.904;2023-04-23T22:28:19;0.70;;;0.50;;
79126;SDS011;68528;48.814;8.904;2023-04-23T22:30:46;0.60;;;0.50;;
79126;SDS011;68528;48.814;8.904;2023-04-23T22:33:11;2.42;;;0.50;;
79126;SDS011;68528;48.814;8.904;2023-04-23T22:35:37;1.17;;;0.45;;
79126;SDS011;68528;48.814;8.904;2023-04-23T22:38:02;1.48;;;0.50;;
79126;SDS011;68528;48.814;8.904;2023-04-23T22:40:28;1.13;;;0.38;;
79126;SDS011;68528;48.814;8.904;2023-04-23T22:42:54;1.52;;;0.50;;
79126;SDS011;68528;48.814;8.904;2023-04-23T22:45:26;1.95;;;0.55;;
79126;SDS011;68528;48.814;8.904;2023-04-23T22:47:54;1.92;;;0.60;;
79126;SDS011;68528;48.814;8.904;2023-04-23T22:50:20;2.20;;;0.50;;
79126;SDS011;68528;48.814;8.904;2023-04-23T22:52:46;1.67;;;0.47;;
79126;SDS011;68528;48.814;8.904;2023-04-23T22:55:17;0.75;;;0.60;;
79126;SDS011;68528;48.814;8.904;2023-04-23T22:57:42;1.27;;;0.52;;
79126;SDS011;68528;48.814;8.904;2023-04-23T23:00:10;0.68;;;0.68;;
79126;SDS011;68528;48.814;8.904;2023-04-23T23:02:36;1.10;;;0.52;;
79126;SDS011;68528;48.814;8.904;2023-04-23T23:05:04;2.75;;;0.60;;
79126;SDS011;68528;48.814;8.904;2023-04-23T23:07:31;1.73;;;0.50;;
79126;SDS011;68528;48.814;8.904;2023-04-23T23:09:56;0.22;;;0.20;;
79126;SDS011;68528;48.814;8.904;2023-04-23T23:12:23;1.13;;;0.70;;
79126;SDS011;68528;48.814;8.904;2023-04-23T23:14:50;1.65;;;0.60;;
79126;SDS011;68528;48.814;8.904;2023-04-23T23:17:15;0.88;;;0.45;;
79126;SDS011;68528;48.814;8.904;2023-04-23T23:19:42;0.70;;;0.38;;
79126;SDS011;68528;48.814;8.904;2023-04-23T23:22:10;1.20;;;0.70;;
79126;SDS011;68528;48.814;8.904;2023-04-23T23:24:39;0.75;;;0.47;;
79126;SDS011;68528;48.814;8.904;2023-04-23T23:27:04;1.65;;;0.60;;
79126;SDS011;68528;48.814;8.904;2023-04-23T23:29:31;2.88;;;0.70;;
79126;SDS011;68528;48.814;8.904;2023-04-23T23:31:57;2.20;;;0.52;;
79126;SDS011;68528;48.814;8.904;2023-04-23T23:34:22;2.00;;;0.60;;
79126;SDS011;68528;48.814;8.904;2023-04-23T23:36:55;2.97;;;0.52;;
79126;SDS011;68528;48.814;8.904;2023-04-23T23:39:25;2.03;;;0.52;;
79126;SDS011;68528;48.814;8.904;2023-04-23T23:41:52;1.30;;;0.60;;
79126;SDS011;68528;48.814;8.904;2023-04-23T23:44:18;0.95;;;0.52;;
79126;SDS011;68528;48.814;8.904;2023-04-23T23:46:44;0.90;;;0.70;;
79126;SDS011;68528;48.814;8.904;2023-04-23T23:49:10;0.95;;;0.50;;
79126;SDS011;68528;48.814;8.904;2023-04-23T23:51:36;0.80;;;0.40;;
79126;SDS011;68528;48.814;8.904;2023-04-23T23:54:03;0.77;;;0.40;;
79126;SDS011;68528;48.814;8.904;2023-04-23T23:56:38;1.40;;;0.50;;
79126;SDS011;68528;48.814;8.904;2023-04-23T23:59:05;1.42;;;0.40;;
